METAR Data
IDs: Format: Raw Decoded Include TAF

Data at: 0135 UTC 25 Mar 2019

KAWG 250115Z AUTO 05012KT 6SM BR BKN010 OVC015 09/09 A3005 RMK AO2
KAWG 250055Z AUTO 05008G13KT 5SM BR OVC010 09/09 A3005 RMK AO2
KAWG 250035Z AUTO 04008KT 5SM BR OVC010 09/09 A3004 RMK AO2
KAWG 250015Z AUTO 04008KT 3SM BR BKN011 OVC017 09/09 A3003 RMK AO2
KAWG 242355Z AUTO 05010KT 5SM BR OVC016 10/10 A3002 RMK AO2
KAWG 242335Z AUTO 05009KT 6SM BR OVC016 10/10 A3001 RMK AO2
KAWG 242315Z AUTO 05010G15KT 7SM OVC016 10/10 A3001 RMK AO2
KAWG 242255Z AUTO 03008KT 5SM BR BKN016 OVC020 11/10 A3000 RMK AO2
KAWG 242235Z AUTO 04011G18KT 5SM BR BKN018 11/10 A2999 RMK AO2
KAWG 242215Z AUTO 06011KT 6SM BR OVC019 11/11 A2999 RMK AO2
KAWG 242155Z AUTO 08009KT 6SM BR BKN019 BKN065 11/11 A2999 RMK AO2 P0002
KAWG 242135Z AUTO 07007KT 4SM -RA FEW065 11/11 A3000 RMK AO2
KAWG 242115Z AUTO 08006KT 4SM BR FEW019 FEW038 FEW060 11/11 A2999 RMK AO2
KAWG 242055Z AUTO 09005KT 3SM -RA BKN018 BKN038 11/11 A3000 RMK AO2 P0001
KAWG 242035Z AUTO 10005KT 3SM BR BKN017 11/11 A3000 RMK AO2
KAWG 242015Z AUTO 10003KT 4SM BR SCT015 BKN041 11/10 A2999 RMK AO2
KAWG 241955Z AUTO 11004KT 7SM BKN014 OVC041 11/10 A2999 RMK AO2
KAWG 241935Z AUTO VRB03KT 8SM BKN014 OVC041 11/10 A2999 RMK AO2
KAWG 241915Z AUTO 13003KT 8SM BKN013 BKN040 11/10 A2999 RMK AO2
KAWG 241855Z AUTO 17005KT 8SM OVC013 11/10 A3000 RMK AO2
KAWG 241835Z AUTO 15005KT 7SM OVC012 11/10 A3000 RMK AO2
KAWG 241815Z AUTO 16005KT 6SM BR BKN012 BKN040 11/10 A3001 RMK AO2
KAWG 241755Z AUTO VRB05KT 7SM BKN011 BKN024 BKN040 11/10 A3001 RMK AO2
KAWG 241735Z AUTO 13004KT 6SM BR BKN011 BKN019 10/09 A3002 RMK AO2
KAWG 241715Z AUTO 14007KT 6SM BR BKN011 10/09 A3003 RMK AO2
KAWG 241655Z AUTO 16009KT 6SM BR BKN011 BKN020 10/09 A3003 RMK AO2
KAWG 241635Z AUTO 15009KT 6SM BR SCT011 SCT021 10/10 A3003 RMK AO2
KAWG 241615Z AUTO 13008KT 5SM BR FEW009 FEW021 SCT030 10/10 A3003 RMK AO2
KAWG 241555Z AUTO 14009KT 5SM BR SCT008 SCT013 SCT022 09/09 A3003 RMK AO2
KAWG 241535Z AUTO 14009KT 5SM BR FEW007 SCT010 SCT022 09/09 A3003 RMK AO2
KAWG 241515Z AUTO 13010KT 5SM BR FEW009 BKN023 09/09 A3003 RMK AO2
KAWG 241455Z AUTO 14008KT 4SM BR SCT007 BKN024 08/08 A3004 RMK AO2
KAWG 241435Z AUTO 14008KT 3SM BR SCT007 OVC025 08/08 A3004 RMK AO2
KAWG 241415Z AUTO 13009KT 2 1/2SM BR FEW005 OVC025 08/08 A3004 RMK AO2
KAWG 241355Z AUTO 12009KT 2SM BR OVC025 07/07 A3004 RMK AO2
KAWG 241335Z AUTO 12008KT 2SM BR OVC027 07/07 A3004 RMK AO2
KAWG 241315Z AUTO 12007KT 2SM BR OVC027 06/06 A3004 RMK AO2
KAWG 241255Z AUTO 12006KT 2 1/2SM BR OVC028 06/06 A3005 RMK AO2
KAWG 241235Z AUTO 11005KT 4SM BR OVC029 06/06 A3004 RMK AO2
KAWG 241215Z AUTO 10007KT 5SM BR OVC030 06/06 A3004 RMK AO2
KAWG 241155Z AUTO 11007KT 5SM BR OVC032 06/06 A3005 RMK AO2 P0002
KAWG 241135Z AUTO 11006KT 3SM -RA FEW028 OVC034 06/06 A3005 RMK AO2
KAWG 241115Z AUTO 10005KT 3SM -UP SCT027 BKN034 OVC070 06/06 A3005 RMK AO2
KAWG 241055Z AUTO 10005KT 4SM BR FEW025 OVC034 06/06 A3005 RMK AO2
KAWG 241035Z AUTO 11005KT 5SM BR OVC041 06/06 A3005 RMK AO2
KAWG 241015Z AUTO 10006KT 5SM BR OVC041 06/06 A3005 RMK AO2
KAWG 240955Z AUTO 10005KT 6SM BR OVC040 06/06 A3005 RMK AO2 P0003
KAWG 240935Z AUTO 11006KT 4SM -RA BKN036 OVC041 06/06 A3006 RMK AO2
KAWG 240915Z AUTO 10006KT 5SM -RA FEW025 SCT033 OVC039 06/06 A3007 RMK AO2
KAWG 240855Z AUTO 13007KT 3SM -RA FEW030 BKN040 OVC060 06/06 A3007 RMK AO2 P0005
KAWG 240835Z AUTO 13005KT 7SM -RA FEW021 SCT036 OVC060 06/06 A3008 RMK AO2
KAWG 240815Z AUTO 13006KT 9SM SCT024 BKN065 OVC080 06/05 A3008 RMK AO2
KAWG 240755Z AUTO 15005KT 8SM -UP BKN026 BKN033 OVC085 06/05 A3009 RMK AO2
KAWG 240735Z AUTO 14006KT 10SM FEW032 SCT070 BKN080 07/04 A3010 RMK AO2
KAWG 240715Z AUTO 14007KT 10SM OVC075 07/04 A3010 RMK AO2
KAWG 240655Z AUTO 14007KT 10SM OVC070 07/04 A3010 RMK AO2
KAWG 240635Z AUTO 14009KT 10SM BKN060 OVC070 07/04 A3011 RMK AO2
KAWG 240615Z AUTO 14008KT 10SM FEW042 BKN060 OVC075 07/04 A3011 RMK AO2
KAWG 240555Z AUTO 14010KT 6SM HZ FEW042 SCT055 OVC070 08/04 A3011 RMK AO2
KAWG 240535Z AUTO 14008KT 10SM OVC070 08/03 A3012 RMK AO2
KAWG 240515Z AUTO 15009KT 10SM SCT060 OVC070 08/03 A3013 RMK AO2
KAWG 240455Z AUTO 12006KT 10SM BKN060 OVC075 07/04 A3013 RMK AO2
KAWG 240435Z AUTO 13008KT 10SM FEW060 BKN070 OVC080 08/03 A3013 RMK AO2
KAWG 240415Z AUTO 14008KT 10SM BKN065 OVC075 08/04 A3014 RMK AO2
KAWG 240355Z AUTO 14009KT 10SM FEW060 OVC070 08/04 A3014 RMK AO2
KAWG 240335Z AUTO 16010KT 9SM FEW035 BKN060 OVC075 09/03 A3015 RMK AO2
KAWG 240315Z AUTO 14006KT 10SM FEW038 SCT055 BKN065 07/03 A3014 RMK AO2
KAWG 240255Z AUTO 11008KT 10SM BKN080 OVC090 07/03 A3013 RMK AO2
KAWG 240235Z AUTO 12008KT 10SM OVC090 07/03 A3014 RMK AO2
KAWG 240215Z AUTO 12008KT 10SM BKN095 OVC120 07/03 A3014 RMK AO2
KAWG 240155Z AUTO 12007KT 10SM SCT110 07/03 A3014 RMK AO2
KAWG 240135Z AUTO 13009KT 10SM BKN120 08/03 A3014 RMK AO2
KAWG 240115Z AUTO 12007KT 10SM BKN120 08/03 A3015 RMK AO2
KAWG 240055Z AUTO 13009KT 10SM SCT100 SCT120 08/03 A3015 RMK AO2
KAWG 240035Z AUTO 12007KT 10SM BKN100 08/03 A3015 RMK AO2
KAWG 240015Z AUTO 12007KT 10SM BKN100 09/02 A3015 RMK AO2
KAWG 232355Z AUTO 13007KT 9SM CLR 10/02 A3015 RMK AO2
KAWG 232335Z AUTO 14009KT 10SM FEW100 11/01 A3016 RMK AO2
KAWG 232315Z AUTO 14009KT 10SM FEW100 11/01 A3016 RMK AO2
KAWG 232255Z AUTO 13006KT 10SM CLR 11/01 A3016 RMK AO2
KAWG 232235Z AUTO 13012KT 10SM CLR 12/01 A3016 RMK AO2
KAWG 232215Z AUTO 13010KT 10SM CLR 12/01 A3016 RMK AO2
KAWG 232155Z AUTO 15010KT 10SM CLR 12/01 A3017 RMK AO2
KAWG 232135Z AUTO 15013KT 10SM CLR 12/00 A3018 RMK AO2
KAWG 232115Z AUTO 15009G14KT 10SM CLR 12/01 A3018 RMK AO2
KAWG 232055Z AUTO 16010G17KT 10SM CLR 12/00 A3019 RMK AO2
KAWG 232035Z AUTO 16012G18KT 10SM CLR 12/00 A3019 RMK AO2
KAWG 232015Z AUTO 15012G18KT 10SM CLR 13/01 A3019 RMK AO2
KAWG 231955Z AUTO 16013G19KT 10SM CLR 13/01 A3020 RMK AO2
KAWG 231935Z AUTO 16011G18KT 10SM CLR 13/01 A3021 RMK AO2
KAWG 231915Z AUTO 15012G18KT 10SM CLR 13/01 A3022 RMK AO2
KAWG 231855Z AUTO 14013KT 10SM CLR 13/02 A3022 RMK AO2
KAWG 231835Z AUTO 14011G17KT 10SM CLR 12/02 A3022 RMK AO2
KAWG 231815Z AUTO 14014KT 10SM CLR 12/01 A3023 RMK AO2
KAWG 231755Z AUTO 15013KT 10SM CLR 11/01 A3024 RMK AO2
KAWG 231735Z AUTO 18012G22KT 10SM CLR 12/02 A3024 RMK AO2
KAWG 231715Z AUTO 14015KT 10SM CLR 11/01 A3025 RMK AO2
KAWG 231655Z AUTO 16009G17KT 10SM CLR 11/02 A3025 RMK AO2
KAWG 231635Z AUTO 16009G15KT 10SM CLR 10/03 A3026 RMK AO2
KAWG 231615Z AUTO 15012KT 10SM CLR 09/03 A3027 RMK AO2
KAWG 231555Z AUTO 14009KT 10SM CLR 08/03 A3027 RMK AO2
KAWG 231535Z AUTO 15009KT 10SM CLR 07/03 A3028 RMK AO2
KAWG 231515Z AUTO 15008KT 10SM CLR 06/03 A3027 RMK AO2
KAWG 231455Z AUTO 15010KT 10SM CLR 05/02 A3028 RMK AO2
KAWG 231435Z AUTO 15009KT 10SM CLR 04/02 A3028 RMK AO2
KAWG 231415Z AUTO 14008KT 10SM CLR 03/02 A3029 RMK AO2
KAWG 231355Z AUTO 14008KT 10SM CLR 02/01 A3029 RMK AO2